sensor_id;sensor_type;location;lat;lon;timestamp;P1;durP1;ratioP1;P2;durP2;ratioP2
65855;SDS011;52631;42.208;24.656;2023-09-07T00:01:59;16.48;;;12.45;;
65855;SDS011;52631;42.208;24.656;2023-09-07T00:04:24;17.90;;;12.18;;
65855;SDS011;52631;42.208;24.656;2023-09-07T00:06:49;16.58;;;11.55;;
65855;SDS011;52631;42.208;24.656;2023-09-07T00:09:15;14.68;;;11.95;;
65855;SDS011;52631;42.208;24.656;2023-09-07T00:11:43;18.20;;;12.63;;
65855;SDS011;52631;42.208;24.656;2023-09-07T00:14:09;16.30;;;12.27;;
65855;SDS011;52631;42.208;24.656;2023-09-07T00:16:34;19.15;;;11.85;;
65855;SDS011;52631;42.208;24.656;2023-09-07T00:19:00;16.70;;;12.10;;
65855;SDS011;52631;42.208;24.656;2023-09-07T00:21:28;15.98;;;11.85;;
65855;SDS011;52631;42.208;24.656;2023-09-07T00:23:53;17.02;;;12.20;;
65855;SDS011;52631;42.208;24.656;2023-09-07T00:26:20;17.63;;;11.45;;
65855;SDS011;52631;42.208;24.656;2023-09-07T00:28:45;14.60;;;11.70;;
65855;SDS011;52631;42.208;24.656;2023-09-07T00:31:10;16.85;;;11.77;;
65855;SDS011;52631;42.208;24.656;2023-09-07T00:33:36;17.35;;;11.07;;
65855;SDS011;52631;42.208;24.656;2023-09-07T00:36:01;15.20;;;11.40;;
65855;SDS011;52631;42.208;24.656;2023-09-07T00:38:28;16.85;;;12.43;;
65855;SDS011;52631;42.208;24.656;2023-09-07T00:40:53;15.77;;;11.82;;
65855;SDS011;52631;42.208;24.656;2023-09-07T00:43:19;17.65;;;12.50;;
65855;SDS011;52631;42.208;24.656;2023-09-07T00:45:44;18.80;;;13.05;;
65855;SDS011;52631;42.208;24.656;2023-09-07T00:48:11;19.73;;;13.75;;
65855;SDS011;52631;42.208;24.656;2023-09-07T00:50:38;18.20;;;13.23;;
65855;SDS011;52631;42.208;24.656;2023-09-07T00:53:04;18.52;;;13.27;;
65855;SDS011;52631;42.208;24.656;2023-09-07T00:55:32;17.90;;;12.63;;
65855;SDS011;52631;42.208;24.656;2023-09-07T00:57:59;17.70;;;12.38;;
65855;SDS011;52631;42.208;24.656;2023-09-07T01:00:28;17.58;;;12.63;;
65855;SDS011;52631;42.208;24.656;2023-09-07T01:02:54;18.55;;;12.45;;
65855;SDS011;52631;42.208;24.656;2023-09-07T01:05:21;17.42;;;12.32;;
65855;SDS011;52631;42.208;24.656;2023-09-07T01:07:53;19.55;;;12.88;;
65855;SDS011;52631;42.208;24.656;2023-09-07T01:10:21;20.20;;;13.23;;
65855;SDS011;52631;42.208;24.656;2023-09-07T01:12:47;18.42;;;13.05;;
65855;SDS011;52631;42.208;24.656;2023-09-07T01:15:13;16.95;;;13.80;;
65855;SDS011;52631;42.208;24.656;2023-09-07T01:17:38;18.33;;;12.60;;
65855;SDS011;52631;42.208;24.656;2023-09-07T01:20:04;16.38;;;11.90;;
65855;SDS011;52631;42.208;24.656;2023-09-07T01:22:37;17.02;;;12.98;;
65855;SDS011;52631;42.208;24.656;2023-09-07T01:25:02;18.25;;;13.68;;
65855;SDS011;52631;42.208;24.656;2023-09-07T01:27:30;18.38;;;13.10;;
65855;SDS011;52631;42.208;24.656;2023-09-07T01:29:55;18.30;;;12.65;;
65855;SDS011;52631;42.208;24.656;2023-09-07T01:32:21;16.45;;;12.32;;
65855;SDS011;52631;42.208;24.656;2023-09-07T01:34:46;21.42;;;14.65;;
65855;SDS011;52631;42.208;24.656;2023-09-07T01:37:11;18.10;;;13.40;;
65855;SDS011;52631;42.208;24.656;2023-09-07T01:39:37;19.60;;;13.77;;
65855;SDS011;52631;42.208;24.656;2023-09-07T01:42:02;19.80;;;13.40;;
65855;SDS011;52631;42.208;24.656;2023-09-07T01:44:28;20.33;;;13.70;;
65855;SDS011;52631;42.208;24.656;2023-09-07T01:46:54;18.55;;;14.05;;
65855;SDS011;52631;42.208;24.656;2023-09-07T01:49:20;20.98;;;13.68;;
65855;SDS011;52631;42.208;24.656;2023-09-07T01:51:45;18.02;;;14.15;;
65855;SDS011;52631;42.208;24.656;2023-09-07T01:54:11;17.23;;;13.80;;
65855;SDS011;52631;42.208;24.656;2023-09-07T01:56:36;20.50;;;13.60;;
65855;SDS011;52631;42.208;24.656;2023-09-07T01:59:02;22.17;;;14.23;;
65855;SDS011;52631;42.208;24.656;2023-09-07T02:01:28;21.70;;;15.00;;
65855;SDS011;52631;42.208;24.656;2023-09-07T02:03:55;19.33;;;13.35;;
65855;SDS011;52631;42.208;24.656;2023-09-07T02:06:20;19.80;;;13.85;;
65855;SDS011;52631;42.208;24.656;2023-09-07T02:08:46;20.60;;;14.30;;
65855;SDS011;52631;42.208;24.656;2023-09-07T02:11:11;20.67;;;14.88;;
65855;SDS011;52631;42.208;24.656;2023-09-07T02:13:37;17.20;;;13.18;;
65855;SDS011;52631;42.208;24.656;2023-09-07T02:16:03;20.40;;;13.48;;
65855;SDS011;52631;42.208;24.656;2023-09-07T02:18:29;18.70;;;14.18;;
65855;SDS011;52631;42.208;24.656;2023-09-07T02:20:54;19.75;;;13.63;;
65855;SDS011;52631;42.208;24.656;2023-09-07T02:23:26;18.67;;;14.38;;
65855;SDS011;52631;42.208;24.656;2023-09-07T02:25:51;22.17;;;14.82;;
65855;SDS011;52631;42.208;24.656;2023-09-07T02:28:17;21.92;;;13.55;;
65855;SDS011;52631;42.208;24.656;2023-09-07T02:30:42;18.30;;;14.32;;
65855;SDS011;52631;42.208;24.656;2023-09-07T02:33:08;19.70;;;14.05;;
65855;SDS011;52631;42.208;24.656;2023-09-07T02:35:36;20.88;;;13.90;;
65855;SDS011;52631;42.208;24.656;2023-09-07T02:38:02;19.65;;;13.88;;
65855;SDS011;52631;42.208;24.656;2023-09-07T02:40:27;19.15;;;14.68;;
65855;SDS011;52631;42.208;24.656;2023-09-07T02:42:53;23.52;;;14.95;;
65855;SDS011;52631;42.208;24.656;2023-09-07T02:45:18;18.13;;;13.57;;
65855;SDS011;52631;42.208;24.656;2023-09-07T02:47:44;18.38;;;13.50;;
65855;SDS011;52631;42.208;24.656;2023-09-07T02:50:09;26.27;;;14.50;;
65855;SDS011;52631;42.208;24.656;2023-09-07T02:52:34;23.65;;;15.63;;
65855;SDS011;52631;42.208;24.656;2023-09-07T02:55:00;21.38;;;14.90;;
65855;SDS011;52631;42.208;24.656;2023-09-07T02:57:25;21.92;;;14.50;;
65855;SDS011;52631;42.208;24.656;2023-09-07T02:59:51;18.67;;;13.85;;
65855;SDS011;52631;42.208;24.656;2023-09-07T03:02:17;18.30;;;13.55;;
65855;SDS011;52631;42.208;24.656;2023-09-07T03:04:42;18.10;;;13.50;;
65855;SDS011;52631;42.208;24.656;2023-09-07T03:07:08;17.85;;;12.52;;
65855;SDS011;52631;42.208;24.656;2023-09-07T03:09:34;18.55;;;13.93;;
65855;SDS011;52631;42.208;24.656;2023-09-07T03:11:59;23.42;;;14.95;;
65855;SDS011;52631;42.208;24.656;2023-09-07T03:14:25;24.80;;;15.25;;
65855;SDS011;52631;42.208;24.656;2023-09-07T03:16:50;18.75;;;14.40;;
65855;SDS011;52631;42.208;24.656;2023-09-07T03:19:16;20.25;;;13.02;;
65855;SDS011;52631;42.208;24.656;2023-09-07T03:21:41;19.70;;;14.00;;
65855;SDS011;52631;42.208;24.656;2023-09-07T03:24:07;19.15;;;14.32;;
65855;SDS011;52631;42.208;24.656;2023-09-07T03:26:33;20.95;;;13.75;;
65855;SDS011;52631;42.208;24.656;2023-09-07T03:28:58;21.92;;;15.27;;
65855;SDS011;52631;42.208;24.656;2023-09-07T03:31:23;20.27;;;14.05;;
65855;SDS011;52631;42.208;24.656;2023-09-07T03:33:49;24.25;;;15.10;;
65855;SDS011;52631;42.208;24.656;2023-09-07T03:36:14;18.88;;;14.35;;
65855;SDS011;52631;42.208;24.656;2023-09-07T03:38:40;21.33;;;14.43;;
65855;SDS011;52631;42.208;24.656;2023-09-07T03:41:06;20.65;;;14.70;;
65855;SDS011;52631;42.208;24.656;2023-09-07T03:43:32;19.45;;;13.85;;
65855;SDS011;52631;42.208;24.656;2023-09-07T03:45:57;18.77;;;12.93;;
65855;SDS011;52631;42.208;24.656;2023-09-07T03:48:23;24.38;;;13.85;;
65855;SDS011;52631;42.208;24.656;2023-09-07T03:50:48;19.00;;;13.73;;
65855;SDS011;52631;42.208;24.656;2023-09-07T03:53:13;20.10;;;13.32;;
65855;SDS011;52631;42.208;24.656;2023-09-07T03:55:42;21.15;;;15.40;;
65855;SDS011;52631;42.208;24.656;2023-09-07T03:58:09;23.23;;;15.25;;
65855;SDS011;52631;42.208;24.656;2023-09-07T04:00:37;23.52;;;16.05;;
65855;SDS011;52631;42.208;24.656;2023-09-07T04:03:04;23.92;;;15.88;;
65855;SDS011;52631;42.208;24.656;2023-09-07T04:05:29;21.92;;;14.77;;
65855;SDS011;52631;42.208;24.656;2023-09-07T04:07:55;22.20;;;15.43;;
65855;SDS011;52631;42.208;24.656;2023-09-07T04:10:20;23.85;;;15.45;;
65855;SDS011;52631;42.208;24.656;2023-09-07T04:12:45;22.25;;;16.23;;
65855;SDS011;52631;42.208;24.656;2023-09-07T04:15:11;24.83;;;16.05;;
65855;SDS011;52631;42.208;24.656;2023-09-07T04:17:36;25.65;;;17.05;;
65855;SDS011;52631;42.208;24.656;2023-09-07T04:20:06;22.42;;;14.73;;
65855;SDS011;52631;42.208;24.656;2023-09-07T04:22:32;22.35;;;14.93;;
65855;SDS011;52631;42.208;24.656;2023-09-07T04:24:58;23.33;;;16.20;;
65855;SDS011;52631;42.208;24.656;2023-09-07T04:27:23;22.08;;;15.32;;
65855;SDS011;52631;42.208;24.656;2023-09-07T04:29:48;23.73;;;15.98;;
65855;SDS011;52631;42.208;24.656;2023-09-07T04:32:15;24.15;;;17.38;;
65855;SDS011;52631;42.208;24.656;2023-09-07T04:34:40;23.70;;;16.17;;
65855;SDS011;52631;42.208;24.656;2023-09-07T04:37:06;25.00;;;17.17;;
65855;SDS011;52631;42.208;24.656;2023-09-07T04:39:31;23.88;;;17.02;;
65855;SDS011;52631;42.208;24.656;2023-09-07T04:41:56;26.00;;;18.55;;
65855;SDS011;52631;42.208;24.656;2023-09-07T04:44:22;32.50;;;19.70;;
65855;SDS011;52631;42.208;24.656;2023-09-07T04:46:47;26.05;;;19.52;;
65855;SDS011;52631;42.208;24.656;2023-09-07T04:49:13;25.98;;;18.35;;
65855;SDS011;52631;42.208;24.656;2023-09-07T04:51:38;26.50;;;18.75;;
65855;SDS011;52631;42.208;24.656;2023-09-07T04:54:03;26.35;;;19.48;;
65855;SDS011;52631;42.208;24.656;2023-09-07T04:56:29;27.05;;;20.50;;
65855;SDS011;52631;42.208;24.656;2023-09-07T04:58:54;29.33;;;20.17;;
65855;SDS011;52631;42.208;24.656;2023-09-07T05:01:20;28.63;;;18.75;;
65855;SDS011;52631;42.208;24.656;2023-09-07T05:03:45;25.75;;;18.45;;
65855;SDS011;52631;42.208;24.656;2023-09-07T05:06:11;29.02;;;18.67;;
65855;SDS011;52631;42.208;24.656;2023-09-07T05:08:36;29.48;;;18.70;;
65855;SDS011;52631;42.208;24.656;2023-09-07T05:11:02;28.52;;;19.10;;
65855;SDS011;52631;42.208;24.656;2023-09-07T05:13:28;26.80;;;17.65;;
65855;SDS011;52631;42.208;24.656;2023-09-07T05:15:55;26.75;;;18.48;;
65855;SDS011;52631;42.208;24.656;2023-09-07T05:18:21;27.48;;;18.25;;
65855;SDS011;52631;42.208;24.656;2023-09-07T05:20:47;30.92;;;18.33;;
65855;SDS011;52631;42.208;24.656;2023-09-07T05:23:20;25.50;;;17.35;;
65855;SDS011;52631;42.208;24.656;2023-09-07T05:25:47;29.90;;;18.10;;
65855;SDS011;52631;42.208;24.656;2023-09-07T05:28:14;28.02;;;17.88;;
65855;SDS011;52631;42.208;24.656;2023-09-07T05:30:40;24.23;;;16.67;;
65855;SDS011;52631;42.208;24.656;2023-09-07T05:33:06;24.98;;;16.80;;
65855;SDS011;52631;42.208;24.656;2023-09-07T05:35:33;23.17;;;18.02;;
65855;SDS011;52631;42.208;24.656;2023-09-07T05:37:58;25.13;;;16.63;;
65855;SDS011;52631;42.208;24.656;2023-09-07T05:40:24;23.33;;;16.40;;
65855;SDS011;52631;42.208;24.656;2023-09-07T05:42:49;26.17;;;16.50;;
65855;SDS011;52631;42.208;24.656;2023-09-07T05:45:15;21.58;;;15.43;;
65855;SDS011;52631;42.208;24.656;2023-09-07T05:47:40;23.67;;;15.50;;
65855;SDS011;52631;42.208;24.656;2023-09-07T05:50:06;19.80;;;15.10;;
65855;SDS011;52631;42.208;24.656;2023-09-07T05:52:31;21.25;;;15.57;;
65855;SDS011;52631;42.208;24.656;2023-09-07T05:54:57;22.02;;;15.68;;
65855;SDS011;52631;42.208;24.656;2023-09-07T05:57:22;18.58;;;14.70;;
65855;SDS011;52631;42.208;24.656;2023-09-07T05:59:47;22.95;;;15.70;;
65855;SDS011;52631;42.208;24.656;2023-09-07T06:02:13;21.35;;;14.93;;
65855;SDS011;52631;42.208;24.656;2023-09-07T06:04:38;24.75;;;14.48;;
65855;SDS011;52631;42.208;24.656;2023-09-07T06:07:04;18.38;;;13.18;;
65855;SDS011;52631;42.208;24.656;2023-09-07T06:09:29;21.25;;;13.23;;
65855;SDS011;52631;42.208;24.656;2023-09-07T06:11:54;18.25;;;13.60;;
65855;SDS011;52631;42.208;24.656;2023-09-07T06:14:20;17.08;;;12.48;;
65855;SDS011;52631;42.208;24.656;2023-09-07T06:16:45;19.23;;;13.73;;
65855;SDS011;52631;42.208;24.656;2023-09-07T06:19:11;19.55;;;13.98;;
65855;SDS011;52631;42.208;24.656;2023-09-07T06:21:36;20.17;;;13.32;;
65855;SDS011;52631;42.208;24.656;2023-09-07T06:24:01;20.73;;;12.70;;
65855;SDS011;52631;42.208;24.656;2023-09-07T06:26:27;21.20;;;13.63;;
65855;SDS011;52631;42.208;24.656;2023-09-07T06:28:53;21.52;;;13.65;;
65855;SDS011;52631;42.208;24.656;2023-09-07T06:31:18;21.05;;;13.90;;
65855;SDS011;52631;42.208;24.656;2023-09-07T06:33:43;19.00;;;13.65;;
65855;SDS011;52631;42.208;24.656;2023-09-07T06:36:09;20.77;;;13.38;;
65855;SDS011;52631;42.208;24.656;2023-09-07T06:38:34;18.00;;;13.20;;
65855;SDS011;52631;42.208;24.656;2023-09-07T06:41:01;18.40;;;13.30;;
65855;SDS011;52631;42.208;24.656;2023-09-07T06:43:26;16.30;;;12.70;;
65855;SDS011;52631;42.208;24.656;2023-09-07T06:45:52;17.38;;;13.40;;
65855;SDS011;52631;42.208;24.656;2023-09-07T06:48:17;16.27;;;11.98;;
65855;SDS011;52631;42.208;24.656;2023-09-07T06:50:43;17.73;;;11.85;;
65855;SDS011;52631;42.208;24.656;2023-09-07T06:53:08;13.65;;;10.70;;
65855;SDS011;52631;42.208;24.656;2023-09-07T06:55:34;17.40;;;11.90;;
65855;SDS011;52631;42.208;24.656;2023-09-07T06:57:59;15.82;;;11.55;;
65855;SDS011;52631;42.208;24.656;2023-09-07T07:00:26;16.52;;;10.82;;
65855;SDS011;52631;42.208;24.656;2023-09-07T07:02:52;15.27;;;10.60;;
65855;SDS011;52631;42.208;24.656;2023-09-07T07:05:17;14.75;;;10.40;;
65855;SDS011;52631;42.208;24.656;2023-09-07T07:07:43;17.77;;;10.60;;
65855;SDS011;52631;42.208;24.656;2023-09-07T07:10:09;14.60;;;9.73;;
65855;SDS011;52631;42.208;24.656;2023-09-07T07:12:34;13.73;;;10.80;;
65855;SDS011;52631;42.208;24.656;2023-09-07T07:15:00;15.00;;;10.25;;
65855;SDS011;52631;42.208;24.656;2023-09-07T07:17:26;12.90;;;9.10;;
65855;SDS011;52631;42.208;24.656;2023-09-07T07:19:52;10.80;;;8.00;;
65855;SDS011;52631;42.208;24.656;2023-09-07T07:22:17;11.70;;;6.55;;
65855;SDS011;52631;42.208;24.656;2023-09-07T07:24:43;11.40;;;7.15;;
65855;SDS011;52631;42.208;24.656;2023-09-07T07:27:08;11.40;;;7.95;;
65855;SDS011;52631;42.208;24.656;2023-09-07T07:29:35;10.05;;;8.10;;
65855;SDS011;52631;42.208;24.656;2023-09-07T07:32:02;10.63;;;7.22;;
65855;SDS011;52631;42.208;24.656;2023-09-07T07:34:28;12.98;;;7.47;;
65855;SDS011;52631;42.208;24.656;2023-09-07T07:36:54;14.07;;;8.50;;
65855;SDS011;52631;42.208;24.656;2023-09-07T07:39:19;13.88;;;9.85;;
65855;SDS011;52631;42.208;24.656;2023-09-07T07:41:45;10.75;;;8.20;;
65855;SDS011;52631;42.208;24.656;2023-09-07T07:44:11;12.85;;;8.35;;
65855;SDS011;52631;42.208;24.656;2023-09-07T07:46:36;14.27;;;8.50;;
65855;SDS011;52631;42.208;24.656;2023-09-07T07:49:01;11.15;;;7.10;;
65855;SDS011;52631;42.208;24.656;2023-09-07T07:51:27;13.98;;;8.05;;
65855;SDS011;52631;42.208;24.656;2023-09-07T07:53:53;13.05;;;8.35;;
65855;SDS011;52631;42.208;24.656;2023-09-07T07:56:20;15.85;;;8.93;;
65855;SDS011;52631;42.208;24.656;2023-09-07T07:58:45;13.23;;;8.18;;
65855;SDS011;52631;42.208;24.656;2023-09-07T08:01:17;10.25;;;7.22;;
65855;SDS011;52631;42.208;24.656;2023-09-07T08:03:43;12.25;;;7.00;;
65855;SDS011;52631;42.208;24.656;2023-09-07T08:06:09;11.30;;;7.28;;
65855;SDS011;52631;42.208;24.656;2023-09-07T08:08:35;10.23;;;7.60;;
65855;SDS011;52631;42.208;24.656;2023-09-07T08:11:01;11.90;;;7.30;;
65855;SDS011;52631;42.208;24.656;2023-09-07T08:13:30;10.15;;;6.90;;
65855;SDS011;52631;42.208;24.656;2023-09-07T08:16:00;9.52;;;7.05;;
65855;SDS011;52631;42.208;24.656;2023-09-07T08:18:26;9.07;;;6.63;;
65855;SDS011;52631;42.208;24.656;2023-09-07T08:20:52;12.43;;;6.50;;
65855;SDS011;52631;42.208;24.656;2023-09-07T08:23:18;7.75;;;6.15;;
65855;SDS011;52631;42.208;24.656;2023-09-07T08:25:43;9.63;;;6.55;;
65855;SDS011;52631;42.208;24.656;2023-09-07T08:28:11;9.48;;;6.07;;
65855;SDS011;52631;42.208;24.656;2023-09-07T08:30:37;10.85;;;6.38;;
65855;SDS011;52631;42.208;24.656;2023-09-07T08:33:02;10.82;;;7.53;;
65855;SDS011;52631;42.208;24.656;2023-09-07T08:35:30;10.02;;;7.75;;
65855;SDS011;52631;42.208;24.656;2023-09-07T08:38:00;10.82;;;8.02;;
65855;SDS011;52631;42.208;24.656;2023-09-07T08:40:26;13.50;;;7.75;;
65855;SDS011;52631;42.208;24.656;2023-09-07T08:42:54;10.13;;;7.35;;
65855;SDS011;52631;42.208;24.656;2023-09-07T08:45:21;12.35;;;8.43;;
65855;SDS011;52631;42.208;24.656;2023-09-07T08:47:47;11.10;;;7.57;;
65855;SDS011;52631;42.208;24.656;2023-09-07T08:50:14;10.13;;;8.13;;
65855;SDS011;52631;42.208;24.656;2023-09-07T08:52:39;11.20;;;8.27;;
65855;SDS011;52631;42.208;24.656;2023-09-07T08:55:05;11.18;;;7.60;;
65855;SDS011;52631;42.208;24.656;2023-09-07T08:57:31;12.60;;;7.63;;
65855;SDS011;52631;42.208;24.656;2023-09-07T08:59:57;15.20;;;7.25;;
65855;SDS011;52631;42.208;24.656;2023-09-07T09:02:23;10.95;;;6.60;;
65855;SDS011;52631;42.208;24.656;2023-09-07T09:04:48;9.13;;;6.82;;
65855;SDS011;52631;42.208;24.656;2023-09-07T09:07:14;11.93;;;7.72;;
65855;SDS011;52631;42.208;24.656;2023-09-07T09:09:39;11.95;;;7.15;;
65855;SDS011;52631;42.208;24.656;2023-09-07T09:12:09;14.93;;;6.68;;
65855;SDS011;52631;42.208;24.656;2023-09-07T09:14:35;9.20;;;6.03;;
65855;SDS011;52631;42.208;24.656;2023-09-07T09:17:00;8.98;;;6.63;;
65855;SDS011;52631;42.208;24.656;2023-09-07T09:19:33;11.02;;;6.20;;
65855;SDS011;52631;42.208;24.656;2023-09-07T09:21:59;9.13;;;6.07;;
65855;SDS011;52631;42.208;24.656;2023-09-07T09:24:25;10.18;;;5.95;;
65855;SDS011;52631;42.208;24.656;2023-09-07T09:26:51;10.68;;;7.07;;
65855;SDS011;52631;42.208;24.656;2023-09-07T09:29:16;7.60;;;5.88;;
65855;SDS011;52631;42.208;24.656;2023-09-07T09:31:47;9.50;;;6.13;;
65855;SDS011;52631;42.208;24.656;2023-09-07T09:34:13;10.82;;;6.75;;
65855;SDS011;52631;42.208;24.656;2023-09-07T09:36:40;9.55;;;6.55;;
65855;SDS011;52631;42.208;24.656;2023-09-07T09:39:07;10.35;;;6.93;;
65855;SDS011;52631;42.208;24.656;2023-09-07T09:41:32;11.35;;;6.93;;
65855;SDS011;52631;42.208;24.656;2023-09-07T09:43:59;9.15;;;7.00;;
65855;SDS011;52631;42.208;24.656;2023-09-07T09:46:25;11.77;;;7.00;;
65855;SDS011;52631;42.208;24.656;2023-09-07T09:48:51;10.63;;;6.80;;
65855;SDS011;52631;42.208;24.656;2023-09-07T09:51:17;8.32;;;7.05;;
65855;SDS011;52631;42.208;24.656;2023-09-07T09:53:43;12.43;;;7.00;;
65855;SDS011;52631;42.208;24.656;2023-09-07T09:56:09;9.18;;;6.47;;
65855;SDS011;52631;42.208;24.656;2023-09-07T09:58:35;10.77;;;7.30;;
65855;SDS011;52631;42.208;24.656;2023-09-07T10:01:00;9.90;;;6.53;;
65855;SDS011;52631;42.208;24.656;2023-09-07T10:03:37;11.73;;;6.55;;
65855;SDS011;52631;42.208;24.656;2023-09-07T10:06:28;9.20;;;6.30;;
65855;SDS011;52631;42.208;24.656;2023-09-07T10:11:26;10.02;;;7.07;;
65855;SDS011;52631;42.208;24.656;2023-09-07T10:13:57;8.90;;;6.00;;
65855;SDS011;52631;42.208;24.656;2023-09-07T10:16:23;11.10;;;6.70;;
65855;SDS011;52631;42.208;24.656;2023-09-07T10:18:49;10.63;;;6.00;;
65855;SDS011;52631;42.208;24.656;2023-09-07T10:21:14;11.13;;;5.95;;
65855;SDS011;52631;42.208;24.656;2023-09-07T10:23:43;8.00;;;5.38;;
65855;SDS011;52631;42.208;24.656;2023-09-07T10:26:14;9.98;;;6.18;;
65855;SDS011;52631;42.208;24.656;2023-09-07T10:28:40;13.55;;;6.22;;
65855;SDS011;52631;42.208;24.656;2023-09-07T10:31:07;9.43;;;5.78;;
65855;SDS011;52631;42.208;24.656;2023-09-07T10:33:38;8.40;;;5.93;;
65855;SDS011;52631;42.208;24.656;2023-09-07T10:36:03;8.18;;;4.80;;
65855;SDS011;52631;42.208;24.656;2023-09-07T10:38:36;9.35;;;5.20;;
65855;SDS011;52631;42.208;24.656;2023-09-07T10:41:05;7.50;;;5.63;;
65855;SDS011;52631;42.208;24.656;2023-09-07T10:43:31;10.57;;;5.10;;
65855;SDS011;52631;42.208;24.656;2023-09-07T10:45:58;11.60;;;5.80;;
65855;SDS011;52631;42.208;24.656;2023-09-07T10:48:25;15.70;;;5.55;;
65855;SDS011;52631;42.208;24.656;2023-09-07T10:50:53;6.72;;;4.47;;
65855;SDS011;52631;42.208;24.656;2023-09-07T10:53:26;9.38;;;4.90;;
65855;SDS011;52631;42.208;24.656;2023-09-07T10:55:53;8.85;;;4.68;;
65855;SDS011;52631;42.208;24.656;2023-09-07T10:58:24;6.28;;;4.10;;
65855;SDS011;52631;42.208;24.656;2023-09-07T11:00:52;9.32;;;5.10;;
65855;SDS011;52631;42.208;24.656;2023-09-07T11:03:18;9.07;;;5.35;;
65855;SDS011;52631;42.208;24.656;2023-09-07T11:05:43;10.32;;;5.88;;
65855;SDS011;52631;42.208;24.656;2023-09-07T11:08:09;10.18;;;6.10;;
65855;SDS011;52631;42.208;24.656;2023-09-07T11:10:34;10.50;;;5.68;;
65855;SDS011;52631;42.208;24.656;2023-09-07T11:13:06;10.27;;;5.45;;
65855;SDS011;52631;42.208;24.656;2023-09-07T11:15:32;10.93;;;5.47;;
65855;SDS011;52631;42.208;24.656;2023-09-07T11:18:03;9.20;;;5.60;;
65855;SDS011;52631;42.208;24.656;2023-09-07T11:20:30;8.43;;;5.18;;
65855;SDS011;52631;42.208;24.656;2023-09-07T11:22:56;7.88;;;5.53;;
65855;SDS011;52631;42.208;24.656;2023-09-07T11:25:22;8.18;;;5.35;;
65855;SDS011;52631;42.208;24.656;2023-09-07T11:27:47;8.10;;;5.60;;
65855;SDS011;52631;42.208;24.656;2023-09-07T11:30:12;11.13;;;6.22;;
65855;SDS011;52631;42.208;24.656;2023-09-07T11:32:38;14.23;;;6.15;;
65855;SDS011;52631;42.208;24.656;2023-09-07T11:35:05;8.20;;;5.93;;
65855;SDS011;52631;42.208;24.656;2023-09-07T11:37:32;8.52;;;5.97;;
65855;SDS011;52631;42.208;24.656;2023-09-07T11:39:58;10.88;;;6.13;;
65855;SDS011;52631;42.208;24.656;2023-09-07T11:42:23;9.23;;;5.47;;
65855;SDS011;52631;42.208;24.656;2023-09-07T11:44:49;8.05;;;5.55;;
65855;SDS011;52631;42.208;24.656;2023-09-07T11:47:14;11.00;;;6.43;;
65855;SDS011;52631;42.208;24.656;2023-09-07T11:49:40;11.32;;;5.57;;
65855;SDS011;52631;42.208;24.656;2023-09-07T11:52:05;8.93;;;5.95;;
65855;SDS011;52631;42.208;24.656;2023-09-07T11:54:31;7.18;;;5.25;;
65855;SDS011;52631;42.208;24.656;2023-09-07T11:56:56;13.50;;;6.13;;
65855;SDS011;52631;42.208;24.656;2023-09-07T11:59:22;20.30;;;6.97;;
65855;SDS011;52631;42.208;24.656;2023-09-07T12:01:48;9.63;;;5.93;;
65855;SDS011;52631;42.208;24.656;2023-09-07T12:04:13;7.65;;;5.38;;
65855;SDS011;52631;42.208;24.656;2023-09-07T12:06:39;15.25;;;6.10;;
65855;SDS011;52631;42.208;24.656;2023-09-07T12:09:05;10.65;;;5.47;;
65855;SDS011;52631;42.208;24.656;2023-09-07T12:11:34;9.52;;;5.78;;
65855;SDS011;52631;42.208;24.656;2023-09-07T12:14:00;9.32;;;5.63;;
65855;SDS011;52631;42.208;24.656;2023-09-07T12:16:26;9.38;;;5.95;;
65855;SDS011;52631;42.208;24.656;2023-09-07T12:18:52;9.48;;;5.47;;
65855;SDS011;52631;42.208;24.656;2023-09-07T12:21:18;8.85;;;5.97;;
65855;SDS011;52631;42.208;24.656;2023-09-07T12:23:44;8.95;;;5.93;;
65855;SDS011;52631;42.208;24.656;2023-09-07T12:26:09;9.07;;;5.53;;
65855;SDS011;52631;42.208;24.656;2023-09-07T12:28:35;8.40;;;5.60;;
65855;SDS011;52631;42.208;24.656;2023-09-07T12:31:01;8.32;;;5.53;;
65855;SDS011;52631;42.208;24.656;2023-09-07T12:33:26;8.93;;;5.45;;
65855;SDS011;52631;42.208;24.656;2023-09-07T12:35:55;8.35;;;5.35;;
65855;SDS011;52631;42.208;24.656;2023-09-07T12:38:20;10.07;;;5.75;;
65855;SDS011;52631;42.208;24.656;2023-09-07T12:40:49;10.10;;;5.82;;
65855;SDS011;52631;42.208;24.656;2023-09-07T12:43:15;8.63;;;5.18;;
65855;SDS011;52631;42.208;24.656;2023-09-07T12:45:40;8.35;;;5.55;;
65855;SDS011;52631;42.208;24.656;2023-09-07T12:48:06;10.68;;;5.75;;
65855;SDS011;52631;42.208;24.656;2023-09-07T12:50:32;10.32;;;5.40;;
65855;SDS011;52631;42.208;24.656;2023-09-07T12:52:57;7.32;;;5.80;;
65855;SDS011;52631;42.208;24.656;2023-09-07T12:55:23;14.13;;;6.60;;
65855;SDS011;52631;42.208;24.656;2023-09-07T12:57:49;12.52;;;5.78;;
65855;SDS011;52631;42.208;24.656;2023-09-07T13:00:15;9.43;;;5.82;;
65855;SDS011;52631;42.208;24.656;2023-09-07T13:02:41;7.63;;;5.22;;
65855;SDS011;52631;42.208;24.656;2023-09-07T13:05:06;9.48;;;5.63;;
65855;SDS011;52631;42.208;24.656;2023-09-07T13:07:33;6.93;;;5.53;;
65855;SDS011;52631;42.208;24.656;2023-09-07T13:10:00;7.32;;;5.60;;
65855;SDS011;52631;42.208;24.656;2023-09-07T13:12:29;8.18;;;5.63;;
65855;SDS011;52631;42.208;24.656;2023-09-07T13:14:57;9.30;;;5.55;;
65855;SDS011;52631;42.208;24.656;2023-09-07T13:17:23;8.00;;;5.25;;
65855;SDS011;52631;42.208;24.656;2023-09-07T13:19:48;7.07;;;5.15;;
65855;SDS011;52631;42.208;24.656;2023-09-07T13:22:14;16.30;;;6.07;;
65855;SDS011;52631;42.208;24.656;2023-09-07T13:24:39;10.43;;;5.65;;
65855;SDS011;52631;42.208;24.656;2023-09-07T13:27:05;8.65;;;5.15;;
65855;SDS011;52631;42.208;24.656;2023-09-07T13:29:31;7.13;;;5.88;;
65855;SDS011;52631;42.208;24.656;2023-09-07T13:31:57;6.85;;;5.03;;
65855;SDS011;52631;42.208;24.656;2023-09-07T13:34:23;10.02;;;5.70;;
65855;SDS011;52631;42.208;24.656;2023-09-07T13:36:49;7.38;;;5.45;;
65855;SDS011;52631;42.208;24.656;2023-09-07T13:39:15;7.07;;;5.05;;
65855;SDS011;52631;42.208;24.656;2023-09-07T13:41:40;11.07;;;5.65;;
65855;SDS011;52631;42.208;24.656;2023-09-07T13:44:05;11.57;;;5.82;;
65855;SDS011;52631;42.208;24.656;2023-09-07T13:46:31;9.65;;;5.72;;
65855;SDS011;52631;42.208;24.656;2023-09-07T13:48:57;10.85;;;6.40;;
65855;SDS011;52631;42.208;24.656;2023-09-07T13:51:22;8.93;;;6.63;;
65855;SDS011;52631;42.208;24.656;2023-09-07T13:53:47;9.30;;;7.10;;
65855;SDS011;52631;42.208;24.656;2023-09-07T13:56:14;11.18;;;6.10;;
65855;SDS011;52631;42.208;24.656;2023-09-07T13:58:40;10.25;;;6.90;;
65855;SDS011;52631;42.208;24.656;2023-09-07T14:01:06;8.95;;;6.00;;
65855;SDS011;52631;42.208;24.656;2023-09-07T14:03:31;6.93;;;5.75;;
65855;SDS011;52631;42.208;24.656;2023-09-07T14:05:56;10.77;;;5.95;;
65855;SDS011;52631;42.208;24.656;2023-09-07T14:08:22;7.55;;;5.72;;
65855;SDS011;52631;42.208;24.656;2023-09-07T14:10:49;7.60;;;5.57;;
65855;SDS011;52631;42.208;24.656;2023-09-07T14:13:15;7.50;;;5.60;;
65855;SDS011;52631;42.208;24.656;2023-09-07T14:15:42;10.52;;;5.93;;